Time;durP1;ratioP1;P1;durP2;ratioP2;P2;SDS_P1;SDS_P2;PMS_P1;PMS_P2;Temp;Humidity;BMP_temperature;BMP_pressure;BME280_temperature;BME280_humidity;BME280_pressure;Samples;Min_cycle;Max_cycle;Signal;HPM_P1;HPM_P2
2022/01/20 00:03:30;;;;;;;21.40;11.83;;;;;;;1.90;81.07;99993.78;1553916;91;21072;-71
2022/01/20 00:08:33;;;;;;;16.50;10.35;;;;;;;1.93;81.30;99983.02;1553877;92;20937;-71
2022/01/20 00:27:15;;;;;;;15.08;9.30;;;;;;;1.99;82.08;99962.31;1553845;92;21033;-72
2022/01/20 00:32:22;;;;;;;13.20;8.88;;;;;;;1.97;82.29;99973.92;1553969;91;21049;-71
2022/01/20 00:37:22;;;;;;;14.18;9.88;;;;;;;1.96;82.48;99968.30;1554083;91;21745;-71
2022/01/20 00:39:48;;;;;;;17.15;10.43;;;;;;;1.95;82.58;99963.52;1553829;91;21036;-71
2022/01/20 00:42:15;;;;;;;18.17;10.15;;;;;;;1.97;82.71;99971.29;1553706;92;21140;-71
2022/01/20 00:44:44;;;;;;;14.98;9.18;;;;;;;1.96;82.81;99960.41;1553640;92;21092;-71
2022/01/20 00:47:11;;;;;;;13.90;9.38;;;;;;;1.95;82.89;99956.11;1554220;91;21132;-71
2022/01/20 00:49:37;;;;;;;14.45;10.43;;;;;;;1.96;82.98;99955.16;1554022;91;21193;-71
2022/01/20 00:52:04;;;;;;;16.55;11.68;;;;;;;1.94;83.08;99948.69;1554058;91;21570;-71
2022/01/20 00:54:31;;;;;;;16.35;12.33;;;;;;;1.94;83.17;99955.74;1553694;91;21560;-71
2022/01/20 00:56:57;;;;;;;14.93;9.65;;;;;;;1.94;83.25;99950.48;1553922;91;21049;-71
2022/01/20 00:59:23;;;;;;;15.95;11.50;;;;;;;1.95;83.33;99960.89;1553852;92;21060;-71
2022/01/20 01:01:49;;;;;;;15.60;12.07;;;;;;;1.97;83.40;99955.52;1553886;91;21379;-71
2022/01/20 01:04:15;;;;;;;13.62;9.68;;;;;;;1.97;83.47;99954.20;1553199;91;21065;-71
2022/01/20 01:09:08;;;;;;;13.18;8.25;;;;;;;1.99;83.63;99948.32;1553739;91;21048;-71
2022/01/20 01:11:35;;;;;;;11.60;8.80;;;;;;;2.00;83.72;99955.26;1554005;92;21108;-71
2022/01/20 01:14:02;;;;;;;10.53;7.97;;;;;;;2.00;83.78;99947.37;1553697;92;21093;-71
2022/01/20 01:24:40;;;;;;;13.38;9.88;;;;;;;2.07;84.06;99939.33;1553841;92;21116;-71
2022/01/20 01:27:07;;;;;;;15.43;11.43;;;;;;;2.09;84.14;99933.45;1553620;91;21288;-71
2022/01/20 01:32:20;;;;;;;16.40;11.97;;;;;;;2.13;84.28;99937.49;1554172;91;21097;-71
2022/01/20 01:34:49;;;;;;;16.55;11.63;;;;;;;2.14;84.35;99931.28;1553997;91;21060;-71
2022/01/20 01:40:03;;;;;;;14.33;10.72;;;;;;;2.16;84.51;99928.03;1553644;92;21156;-71
2022/01/20 01:42:40;;;;;;;12.28;9.68;;;;;;;2.15;84.57;99924.20;1553678;92;21084;-71
2022/01/20 01:45:12;;;;;;;12.78;8.43;;;;;;;2.15;84.67;99918.46;1553096;91;21093;-71
2022/01/20 01:47:38;;;;;;;14.75;9.15;;;;;;;2.15;84.74;99918.46;1546312;91;21565;-71
2022/01/20 01:50:05;;;;;;;10.95;7.97;;;;;;;2.15;84.81;99921.09;1554226;92;21549;-71
2022/01/20 01:52:31;;;;;;;13.78;9.58;;;;;;;2.16;84.87;99924.08;1553852;91;21316;-71
2022/01/20 01:54:57;;;;;;;14.33;8.10;;;;;;;2.16;84.92;99922.77;1562919;91;21144;-71
2022/01/20 01:57:27;;;;;;;11.18;7.30;;;;;;;2.17;85.02;99920.50;1572425;91;21036;-71
2022/01/20 01:59:53;;;;;;;11.88;8.30;;;;;;;2.18;85.10;99916.88;1572457;91;21052;-71
2022/01/20 02:02:19;;;;;;;12.68;8.83;;;;;;;2.19;85.17;99925.14;1572461;91;21521;-71
2022/01/20 02:04:45;;;;;;;12.85;9.00;;;;;;;2.20;85.23;99936.02;1572455;91;21179;-71
2022/01/20 02:18:10;;;;;;;10.82;8.53;;;;;;;2.11;85.53;99919.67;1572448;91;21635;-71
2022/01/20 02:20:25;;;;;;;11.83;8.78;;;;;;;2.10;85.57;99935.13;1609193;89;21559;-71
2022/01/20 02:22:51;;;;;;;12.33;7.97;;;;;;;2.09;85.63;99932.61;1611362;89;21534;-70
2022/01/20 02:25:22;;;;;;;9.75;6.72;;;;;;;2.08;85.68;99930.93;1611559;89;21082;-70
2022/01/20 02:27:48;;;;;;;22.58;13.00;;;;;;;2.09;85.70;99920.77;1611545;89;21069;-70
2022/01/20 02:30:17;;;;;;;11.78;7.30;;;;;;;2.09;85.77;99905.83;1611558;89;21019;-71
2022/01/20 02:32:45;;;;;;;12.05;7.90;;;;;;;2.10;85.81;99900.09;1611077;89;21045;-70
2022/01/20 02:35:12;;;;;;;12.28;7.78;;;;;;;2.11;85.85;99899.95;1611210;89;21077;-70
2022/01/20 02:37:39;;;;;;;15.13;10.15;;;;;;;2.11;85.88;99901.77;1611474;89;21050;-70
2022/01/20 02:45:35;;;;;;;11.45;7.12;;;;;;;2.13;86.01;99892.78;1611493;89;21141;-70
2022/01/20 02:48:01;;;;;;;11.45;8.95;;;;;;;2.10;86.02;99877.27;1611624;89;21026;-72
2022/01/20 02:50:27;;;;;;;14.73;10.50;;;;;;;2.10;86.08;99881.21;1611534;89;21149;-71
2022/01/20 02:52:53;;;;;;;10.82;7.45;;;;;;;2.10;86.09;99882.52;1611360;87;21037;-71
2022/01/20 02:55:19;;;;;;;11.63;7.80;;;;;;;2.10;86.12;99879.89;1609210;87;21596;-70
2022/01/20 02:57:46;;;;;;;10.50;6.58;;;;;;;2.10;86.14;99881.21;1603239;87;21043;-70
2022/01/20 03:00:13;;;;;;;10.38;5.65;;;;;;;2.11;86.17;99884.17;1601257;89;21078;-71
2022/01/20 03:02:39;;;;;;;9.40;5.35;;;;;;;2.10;86.18;99874.64;1601420;89;21095;-71
2022/01/20 03:05:07;;;;;;;8.90;4.70;;;;;;;2.10;86.20;99882.52;1601338;89;21074;-70
2022/01/20 03:07:33;;;;;;;10.43;4.97;;;;;;;2.08;86.23;99873.91;1601499;89;21523;-70
2022/01/20 03:09:59;;;;;;;7.83;4.75;;;;;;;2.08;86.23;99883.12;1601480;89;20979;-71
2022/01/20 03:12:25;;;;;;;7.53;4.33;;;;;;;2.06;86.26;99886.37;1601372;89;21459;-71
2022/01/20 03:14:51;;;;;;;9.05;5.20;;;;;;;2.07;86.28;99880.16;1601297;89;21030;-71
2022/01/20 03:17:17;;;;;;;11.48;4.62;;;;;;;2.06;86.28;99887.69;1601390;89;21026;-70
2022/01/20 03:19:44;;;;;;;11.50;5.22;;;;;;;2.08;86.30;99902.84;1601179;89;21054;-70
2022/01/20 03:22:10;;;;;;;10.10;5.78;;;;;;;2.08;86.31;99894.95;1601410;89;20986;-70
2022/01/20 03:24:36;;;;;;;11.12;4.03;;;;;;;2.04;86.31;99894.05;1601426;89;21046;-70
2022/01/20 03:27:02;;;;;;;7.75;3.37;;;;;;;1.97;86.33;99910.81;1601019;88;21071;-70
2022/01/20 03:29:28;;;;;;;6.80;3.05;;;;;;;1.93;86.32;99914.66;1601508;89;21111;-70
2022/01/20 03:31:54;;;;;;;10.23;2.72;;;;;;;1.89;86.31;99932.48;1601511;89;21513;-70
2022/01/20 03:34:22;;;;;;;13.75;4.10;;;;;;;1.84;86.29;99932.01;1601283;89;21039;-70
2022/01/20 03:36:48;;;;;;;8.60;2.80;;;;;;;1.74;86.24;99926.31;1601478;89;21082;-70
2022/01/20 03:39:14;;;;;;;13.05;2.65;;;;;;;1.66;86.18;99918.22;1601256;88;21075;-70
2022/01/20 03:41:41;;;;;;;6.30;2.20;;;;;;;1.63;86.11;99931.61;1601024;89;21065;-70
2022/01/20 03:44:07;;;;;;;7.03;2.22;;;;;;;1.60;86.08;99926.13;1601452;88;21179;-71
2022/01/20 03:46:33;;;;;;;11.78;2.55;;;;;;;1.57;86.00;99930.80;1601423;89;21047;-71
2022/01/20 03:49:13;;;;;;;8.45;3.02;;;;;;;1.55;85.94;99923.03;1601485;89;21095;-70
2022/01/20 03:51:36;;;;;;;10.63;2.70;;;;;;;1.53;85.90;99928.06;1601343;89;21558;-70
2022/01/20 03:54:04;;;;;;;7.70;2.40;;;;;;;1.49;85.82;99934.88;1601022;89;21086;-70
2022/01/20 03:56:30;;;;;;;10.00;3.10;;;;;;;1.50;85.78;99947.07;1599071;88;22357;-70
2022/01/20 03:58:56;;;;;;;9.65;2.33;;;;;;;1.52;85.73;99952.19;1599101;89;21581;-70
2022/01/20 04:01:22;;;;;;;6.28;2.45;;;;;;;1.53;85.65;99955.65;1599276;89;20955;-70
2022/01/20 04:03:48;;;;;;;10.88;3.55;;;;;;;1.50;85.58;99959.37;1599036;88;21102;-70
2022/01/20 04:06:14;;;;;;;103.85;34.10;;;;;;;1.39;85.54;99951.03;1599186;89;21051;-70
2022/01/20 04:08:43;;;;;;;34.23;11.22;;;;;;;1.22;85.46;99944.98;1576101;89;21197;-70
2022/01/20 04:11:13;;;;;;;16.97;4.97;;;;;;;0.99;85.39;99931.50;1598973;89;21103;-70
2022/01/20 04:13:40;;;;;;;9.45;3.00;;;;;;;0.84;85.36;99922.23;1599142;89;22316;-70
2022/01/20 04:16:13;;;;;;;7.92;2.58;;;;;;;0.72;85.33;99913.98;1599204;89;21091;-70
2022/01/20 04:18:51;;;;;;;11.50;2.25;;;;;;;0.66;85.30;99905.29;1599189;89;21138;-71
2022/01/20 04:21:09;;;;;;;4.58;1.22;;;;;;;0.61;85.25;99895.61;1599027;89;21910;-70
2022/01/20 04:23:35;;;;;;;6.00;1.50;;;;;;;0.55;85.24;99891.69;1599063;89;21708;-70
2022/01/20 04:26:01;;;;;;;9.83;3.15;;;;;;;0.48;85.23;99886.09;1599062;89;21047;-70
2022/01/20 04:28:27;;;;;;;5.58;2.00;;;;;;;0.43;85.25;99903.95;1599024;89;21027;-70
2022/01/20 04:30:53;;;;;;;5.42;3.00;;;;;;;0.38;85.26;99904.80;1599153;89;21122;-70
2022/01/20 04:33:19;;;;;;;9.28;6.67;;;;;;;0.35;85.26;99908.95;1599162;89;21146;-70
2022/01/20 04:35:45;;;;;;;12.05;8.90;;;;;;;0.32;85.26;99923.61;1598757;89;21062;-70
2022/01/20 04:38:11;;;;;;;16.90;8.95;;;;;;;0.29;85.27;99922.53;1599241;89;21091;-70
2022/01/20 04:40:41;;;;;;;16.15;11.28;;;;;;;0.25;85.30;99922.41;1598992;89;21011;-70
2022/01/20 04:43:05;;;;;;;17.25;9.75;;;;;;;0.21;85.31;99920.96;1598845;89;21721;-70
2022/01/20 04:45:38;;;;;;;12.20;5.83;;;;;;;0.20;85.34;99918.00;1598534;89;21188;-70
2022/01/20 04:48:21;;;;;;;20.15;6.22;;;;;;;0.16;85.37;99908.69;1599062;89;21563;-70
2022/01/20 04:58:45;;;;;;;11.53;2.75;;;;;;;0.23;85.47;99914.30;1599133;89;21158;-70
2022/01/20 05:01:11;;;;;;;11.57;3.15;;;;;;;0.26;85.49;99912.28;1598930;89;21067;-70
2022/01/20 05:03:37;;;;;;;10.85;3.35;;;;;;;0.28;85.51;99912.98;1599300;89;21511;-71
2022/01/20 05:06:03;;;;;;;17.57;5.15;;;;;;;0.35;85.57;99918.63;1599011;89;21657;-71
2022/01/20 05:08:31;;;;;;;11.90;6.12;;;;;;;0.41;85.58;99916.84;1599113;89;21039;-70
2022/01/20 05:11:00;;;;;;;14.80;5.60;;;;;;;0.43;85.62;99914.45;1598966;89;21199;-70
2022/01/20 05:13:32;;;;;;;17.75;6.50;;;;;;;0.44;85.63;99899.55;1599150;89;20987;-70
2022/01/20 05:15:52;;;;;;;16.60;6.78;;;;;;;0.47;85.66;99905.39;1599081;89;21087;-70
2022/01/20 05:18:18;;;;;;;18.25;8.28;;;;;;;0.55;85.67;99903.50;1599013;89;21071;-70
2022/01/20 05:20:44;;;;;;;16.82;6.17;;;;;;;0.60;85.70;99897.40;1599097;89;20956;-70
2022/01/20 05:23:10;;;;;;;20.55;5.22;;;;;;;0.66;85.70;99886.92;1599243;88;21298;-70
2022/01/20 05:25:37;;;;;;;18.87;4.85;;;;;;;0.68;85.70;99888.94;1599051;89;21085;-71
2022/01/20 05:28:03;;;;;;;21.77;6.70;;;;;;;0.73;85.71;99893.36;1599083;89;21039;-70
2022/01/20 05:30:29;;;;;;;16.20;4.70;;;;;;;0.76;85.71;99883.93;1600988;88;21640;-70
2022/01/20 05:32:55;;;;;;;12.98;3.25;;;;;;;0.80;85.70;99879.64;1618732;88;21062;-71
2022/01/20 05:35:21;;;;;;;14.93;4.58;;;;;;;0.84;85.70;99874.98;1606025;88;21119;-70
2022/01/20 05:37:47;;;;;;;15.60;4.53;;;;;;;0.84;85.67;99869.27;1626204;86;21054;-70
2022/01/20 05:40:13;;;;;;;18.10;3.50;;;;;;;0.86;85.68;99879.63;1624949;88;21038;-71
2022/01/20 05:42:39;;;;;;;15.60;4.00;;;;;;;0.84;85.66;99855.30;1625690;88;21047;-71
2022/01/20 05:45:06;;;;;;;18.27;6.45;;;;;;;0.89;85.67;99853.12;1625918;88;21126;-71
2022/01/20 05:47:33;;;;;;;18.65;4.05;;;;;;;0.92;85.64;99850.26;1608925;88;21524;-71
2022/01/20 05:49:59;;;;;;;20.70;4.78;;;;;;;0.95;85.62;99852.66;1602789;89;21087;-71
2022/01/20 05:52:25;;;;;;;16.17;5.12;;;;;;;0.94;85.60;99849.20;1618096;86;20959;-70
2022/01/20 05:54:51;;;;;;;17.60;5.22;;;;;;;0.93;85.59;99844.06;1612567;88;21099;-71
2022/01/20 05:57:17;;;;;;;21.75;4.12;;;;;;;0.92;85.57;99838.45;1641728;86;21062;-71
2022/01/20 05:59:44;;;;;;;23.32;2.90;;;;;;;0.93;85.54;99829.62;1625504;88;21219;-71
2022/01/20 06:02:14;;;;;;;20.50;4.03;;;;;;;0.96;85.54;99849.06;1616592;88;21563;-70
2022/01/20 06:04:38;;;;;;;25.48;5.78;;;;;;;0.96;85.52;99850.38;1609851;88;21102;-70
2022/01/20 06:07:04;;;;;;;20.65;3.50;;;;;;;0.94;85.50;99853.61;1595659;88;21555;-71
2022/01/20 06:09:30;;;;;;;19.32;3.60;;;;;;;0.88;85.49;99849.67;1604593;88;21092;-71
2022/01/20 06:11:56;;;;;;;14.18;3.02;;;;;;;0.78;85.48;99843.48;1617997;87;21109;-71
2022/01/20 06:14:23;;;;;;;20.37;4.37;;;;;;;0.73;85.46;99836.95;1621968;87;21002;-71
2022/01/20 06:16:49;;;;;;;15.63;3.62;;;;;;;0.70;85.47;99832.78;1615300;88;21070;-71
2022/01/20 06:19:16;;;;;;;21.52;3.77;;;;;;;0.69;85.46;99828.48;1615150;88;21018;-71
2022/01/20 06:21:42;;;;;;;23.38;7.92;;;;;;;0.67;85.47;99817.26;1639770;86;21515;-71
2022/01/20 06:24:08;;;;;;;22.93;6.10;;;;;;;0.69;85.50;99822.40;1617856;86;22080;-71
2022/01/20 06:26:34;;;;;;;16.67;4.37;;;;;;;0.72;85.49;99817.74;1637511;86;20979;-70
2022/01/20 06:29:00;;;;;;;18.37;6.15;;;;;;;0.74;85.50;99808.45;1621000;88;21047;-71
2022/01/20 06:31:26;;;;;;;21.82;5.05;;;;;;;0.75;85.51;99796.97;1623184;88;21066;-72
2022/01/20 06:33:52;;;;;;;23.47;7.80;;;;;;;0.76;85.49;99816.55;1625285;88;21030;-72
2022/01/20 06:36:18;;;;;;;29.60;6.28;;;;;;;0.77;85.50;99818.22;1625828;88;21169;-72
2022/01/20 06:38:44;;;;;;;18.62;6.62;;;;;;;0.71;85.49;99833.59;1626307;88;21030;-72
2022/01/20 06:41:10;;;;;;;15.38;2.98;;;;;;;0.57;85.49;99860.08;1619473;88;21047;-72
2022/01/20 06:43:36;;;;;;;6.20;3.02;;;;;;;0.34;85.54;99857.48;1626400;88;21035;-72
2022/01/20 06:46:02;;;;;;;19.23;4.72;;;;;;;0.11;85.61;99883.29;1626219;88;21069;-73
2022/01/20 06:48:28;;;;;;;15.35;3.92;;;;;;;-0.02;85.71;99894.34;1626392;88;21159;-72
2022/01/20 06:50:54;;;;;;;15.13;3.20;;;;;;;-0.09;85.78;99901.00;1626283;88;21576;-72
2022/01/20 06:53:20;;;;;;;14.85;2.98;;;;;;;-0.14;85.84;99900.52;1626225;88;21091;-72
2022/01/20 06:55:46;;;;;;;11.75;3.10;;;;;;;-0.16;85.89;99899.78;1625805;87;21030;-71
2022/01/20 06:58:12;;;;;;;26.62;7.20;;;;;;;-0.15;85.92;99893.61;1628718;88;21019;-72
2022/01/20 07:00:38;;;;;;;19.48;6.60;;;;;;;-0.16;85.97;99891.92;1628664;88;21155;-72
2022/01/20 07:03:04;;;;;;;20.35;7.53;;;;;;;-0.19;86.00;99893.00;1628564;87;21022;-72
2022/01/20 07:05:30;;;;;;;21.68;7.58;;;;;;;-0.23;86.03;99895.95;1628804;88;20951;-72
2022/01/20 07:07:56;;;;;;;20.30;8.33;;;;;;;-0.26;86.08;99894.87;1628373;88;21524;-72
2022/01/20 07:10:22;;;;;;;16.52;7.20;;;;;;;-0.30;86.10;99899.98;1628543;86;21058;-72
2022/01/20 07:12:48;;;;;;;14.75;5.92;;;;;;;-0.32;86.15;99892.72;1628671;88;21925;-72
2022/01/20 07:15:15;;;;;;;18.25;7.97;;;;;;;-0.35;86.21;99886.41;1628760;88;21547;-72
2022/01/20 07:17:41;;;;;;;18.70;6.92;;;;;;;-0.37;86.22;99869.95;1628617;88;21039;-72
2022/01/20 07:20:09;;;;;;;35.80;16.07;;;;;;;-0.38;86.27;99865.64;1628517;88;21050;-72
2022/01/20 07:22:35;;;;;;;33.00;9.90;;;;;;;-0.39;86.30;99878.41;1627739;88;21126;-71
2022/01/20 07:25:01;;;;;;;33.88;8.78;;;;;;;-0.39;86.32;99885.80;1628453;88;21139;-72
2022/01/20 07:27:28;;;;;;;28.87;8.95;;;;;;;-0.38;86.37;99899.70;1628362;86;21562;-73
2022/01/20 07:29:54;;;;;;;26.70;10.08;;;;;;;-0.38;86.38;99894.45;1627253;88;21506;-72
2022/01/20 07:32:20;;;;;;;20.75;5.60;;;;;;;-0.38;86.41;99903.63;1626427;87;21080;-72
2022/01/20 07:34:46;;;;;;;20.17;6.35;;;;;;;-0.38;86.44;99902.31;1619787;88;21050;-72
2022/01/20 07:37:12;;;;;;;22.75;8.70;;;;;;;-0.39;86.45;99887.10;1620989;86;21102;-72
2022/01/20 07:39:38;;;;;;;24.43;10.85;;;;;;;-0.40;86.46;99894.59;1622473;86;20967;-72
2022/01/20 07:42:04;;;;;;;29.63;13.13;;;;;;;-0.39;86.49;99884.95;1600785;89;21062;-72
2022/01/20 07:44:30;;;;;;;60.80;24.50;;;;;;;-0.39;86.50;99890.19;1620613;88;21032;-72
2022/01/20 07:46:57;;;;;;;53.25;18.10;;;;;;;-0.39;86.52;99899.36;1627727;88;21598;-72
2022/01/20 07:49:23;;;;;;;33.58;13.08;;;;;;;-0.38;86.54;99904.94;1623551;88;21267;-72
2022/01/20 07:51:49;;;;;;;21.25;7.92;;;;;;;-0.40;86.54;99909.46;1617829;87;21049;-72
2022/01/20 07:54:15;;;;;;;26.60;6.37;;;;;;;-0.41;86.54;99913.02;1618009;88;21072;-72
2022/01/20 07:56:41;;;;;;;28.75;7.55;;;;;;;-0.42;86.55;99929.20;1624951;86;21054;-73
2022/01/20 07:59:08;;;;;;;35.05;9.90;;;;;;;-0.41;86.57;99936.12;1647264;86;21534;-74
2022/01/20 08:01:34;;;;;;;41.33;10.05;;;;;;;-0.42;86.56;99927.89;1643467;86;21169;-73
2022/01/20 08:04:00;;;;;;;36.95;6.95;;;;;;;-0.43;86.57;99917.55;1645209;86;21087;-73
2022/01/20 08:06:26;;;;;;;24.57;6.45;;;;;;;-0.44;86.57;99913.25;1657634;86;21109;-73
2022/01/20 08:08:52;;;;;;;31.37;7.95;;;;;;;-0.43;86.56;99924.09;1659897;86;21092;-72
2022/01/20 08:11:20;;;;;;;24.05;8.00;;;;;;;-0.42;86.56;99938.38;1654112;86;20958;-73
2022/01/20 08:13:46;;;;;;;48.63;14.73;;;;;;;-0.43;86.56;99954.22;1650896;84;21602;-73
2022/01/20 08:16:12;;;;;;;20.65;6.87;;;;;;;-0.48;86.56;100015.24;1651039;86;21547;-73
2022/01/20 08:18:38;;;;;;;15.32;5.83;;;;;;;-0.66;86.56;100019.53;1646894;86;21073;-72
2022/01/20 08:21:04;;;;;;;23.15;8.23;;;;;;;-0.94;86.57;100026.34;1643907;86;21065;-73
2022/01/20 08:23:30;;;;;;;20.12;6.47;;;;;;;-1.18;86.59;100008.41;1645838;86;21098;-72
2022/01/20 08:25:56;;;;;;;20.65;5.78;;;;;;;-1.28;86.58;100002.14;1650857;86;21199;-73
2022/01/20 08:28:23;;;;;;;27.22;8.08;;;;;;;-1.35;86.59;100003.50;1643767;86;21022;-73
2022/01/20 08:30:50;;;;;;;17.02;8.65;;;;;;;-1.40;86.57;100002.95;1661642;86;21454;-73
2022/01/20 08:33:16;;;;;;;10.70;5.08;;;;;;;-1.43;86.54;100004.02;1655241;86;21058;-73
2022/01/20 08:35:42;;;;;;;16.48;3.72;;;;;;;-1.43;86.53;100016.25;1654675;85;21596;-73
2022/01/20 08:38:08;;;;;;;8.03;3.10;;;;;;;-1.43;86.54;100024.09;1655904;86;21179;-73
2022/01/20 08:40:35;;;;;;;15.00;5.97;;;;;;;-1.44;86.52;100028.97;1657705;86;21081;-73
2022/01/20 08:43:01;;;;;;;16.57;6.80;;;;;;;-1.45;86.52;100025.98;1659675;86;21617;-72
2022/01/20 08:45:30;;;;;;;21.85;7.72;;;;;;;-1.41;86.52;100018.30;1657583;86;37822;-72
2022/01/20 08:47:57;;;;;;;11.50;4.60;;;;;;;-1.35;86.52;100027.03;1661100;86;21125;-73
2022/01/20 08:50:27;;;;;;;15.83;4.92;;;;;;;-1.30;86.52;100022.34;1655968;86;21443;-72
2022/01/20 08:52:53;;;;;;;22.42;7.17;;;;;;;-1.24;86.50;100019.30;1653728;84;21074;-73
2022/01/20 08:55:20;;;;;;;10.20;4.92;;;;;;;-1.19;86.50;100012.80;1649903;85;21166;-72
2022/01/20 08:57:46;;;;;;;15.85;7.85;;;;;;;-1.11;86.50;100018.82;1641725;86;21457;-72
2022/01/20 09:00:13;;;;;;;11.28;5.10;;;;;;;-1.03;86.50;100021.28;1636284;86;21507;-73
2022/01/20 09:02:39;;;;;;;17.85;4.90;;;;;;;-0.95;86.46;100023.34;1645405;86;21297;-73
2022/01/20 09:05:05;;;;;;;15.60;5.20;;;;;;;-0.90;86.47;100026.49;1655594;86;20916;-73
2022/01/20 09:07:31;;;;;;;16.67;6.60;;;;;;;-0.81;86.46;100030.27;1640598;86;21062;-73
2022/01/20 09:10:00;;;;;;;18.87;8.53;;;;;;;-0.78;86.41;100036.13;1640461;86;21054;-73
2022/01/20 09:17:47;;;;;;;10.55;5.20;;;;;;;-0.93;86.27;100055.50;1630048;86;21118;-73
2022/01/20 09:20:13;;;;;;;15.85;5.42;;;;;;;-0.77;86.29;100068.34;1646656;86;21010;-72
2022/01/20 09:22:39;;;;;;;12.95;5.37;;;;;;;-0.69;86.24;100070.80;1641330;86;21051;-73
2022/01/20 09:25:06;;;;;;;13.78;6.42;;;;;;;-0.71;86.16;100072.70;1639397;86;21075;-73
2022/01/20 09:27:33;;;;;;;10.28;3.77;;;;;;;-0.68;86.12;100079.03;1638177;86;21173;-72
2022/01/20 09:30:01;;;;;;;8.88;3.17;;;;;;;-0.67;86.09;100079.38;1629590;86;21496;-72
2022/01/20 09:32:29;;;;;;;11.50;4.42;;;;;;;-0.69;85.94;100076.05;1631921;86;21054;-72
2022/01/20 09:34:56;;;;;;;31.73;13.18;;;;;;;-0.68;85.87;100081.66;1634739;86;21103;-72
2022/01/20 09:37:24;;;;;;;17.12;5.70;;;;;;;-0.67;85.80;100087.23;1644080;86;21286;-72
2022/01/20 09:39:50;;;;;;;18.77;5.22;;;;;;;-0.64;85.71;100078.35;1633030;86;21857;-72
2022/01/20 09:42:16;;;;;;;16.15;3.37;;;;;;;-0.61;85.63;100085.52;1631777;86;21002;-72
2022/01/20 09:44:47;;;;;;;11.15;2.65;;;;;;;-0.62;85.52;100090.38;1588796;89;21101;-72
2022/01/20 09:47:15;;;;;;;29.75;11.75;;;;;;;-0.62;85.42;100092.16;1633986;86;21575;-72
2022/01/20 09:49:42;;;;;;;24.40;5.53;;;;;;;-0.62;85.28;100096.09;1643078;86;21583;-72
2022/01/20 09:52:08;;;;;;;15.05;5.35;;;;;;;-0.58;85.17;100108.87;1639956;86;21240;-72
2022/01/20 09:54:34;;;;;;;63.85;22.45;;;;;;;-0.56;85.05;100112.20;1627309;86;21362;-73
2022/01/20 09:57:00;;;;;;;57.50;18.02;;;;;;;-0.58;84.90;100110.17;1612033;88;21091;-73
2022/01/20 09:59:28;;;;;;;31.95;10.00;;;;;;;-0.57;84.74;100115.79;1601137;88;21059;-73
2022/01/20 10:01:58;;;;;;;22.65;5.85;;;;;;;-0.54;84.59;100116.88;1601353;89;21089;-73
2022/01/20 10:04:32;;;;;;;19.35;5.60;;;;;;;-0.49;84.48;100108.69;1601448;89;21535;-73
2022/01/20 10:07:06;;;;;;;11.57;3.62;;;;;;;-0.47;84.35;100113.83;1601296;89;21044;-73
2022/01/20 10:09:38;;;;;;;18.10;5.53;;;;;;;-0.45;84.18;100108.00;1601195;89;21095;-74
2022/01/20 10:12:04;;;;;;;19.12;6.37;;;;;;;-0.49;83.99;100105.25;1601416;88;21027;-73
2022/01/20 10:14:57;;;;;;;16.82;5.20;;;;;;;-0.46;83.83;100112.89;1601416;89;21038;-73
2022/01/20 10:17:27;;;;;;;12.98;4.30;;;;;;;-0.45;83.58;100119.78;1601466;89;21030;-73
2022/01/20 10:20:04;;;;;;;;;;;;;;;-0.42;83.40;100120.91;1603467;89;21180;-73
2022/01/20 10:22:30;;;;;;;12.68;4.10;;;;;;;-0.39;83.21;100111.05;1601349;89;20191;-72
2022/01/20 10:25:11;;;;;;;7.65;2.67;;;;;;;-0.35;83.05;100112.48;1601440;89;21106;-72
2022/01/20 10:27:51;;;;;;;15.00;4.37;;;;;;;-0.36;82.79;100115.23;1601454;89;21058;-73
2022/01/20 10:30:19;;;;;;;10.50;3.47;;;;;;;-0.30;82.63;100103.00;1601332;89;21144;-73
2022/01/20 10:32:51;;;;;;;11.28;2.95;;;;;;;-0.26;82.46;100095.29;1601462;88;22456;-72
2022/01/20 10:35:25;;;;;;;15.58;3.90;;;;;;;-0.24;82.24;100086.84;1601162;88;21122;-72
2022/01/20 10:37:59;;;;;;;8.05;1.90;;;;;;;-0.22;82.02;100099.38;1601439;89;21098;-72
2022/01/20 10:40:25;;;;;;;7.40;2.33;;;;;;;-0.18;81.73;100083.80;1562190;91;21119;-74
2022/01/20 10:42:51;;;;;;;7.33;2.62;;;;;;;-0.19;81.42;100094.75;1601421;89;21056;-73
2022/01/20 10:45:27;;;;;;;6.10;2.20;;;;;;;-0.07;81.19;100090.42;1601498;89;21028;-73
2022/01/20 10:47:56;;;;;;;16.97;3.42;;;;;;;0.07;80.98;100088.92;1601232;89;21504;-73
2022/01/20 10:50:34;;;;;;;9.65;3.58;;;;;;;0.13;80.64;100087.19;1601600;89;21067;-73
2022/01/20 10:53:00;;;;;;;8.55;2.17;;;;;;;0.11;80.33;100094.31;1601072;89;21519;-73
2022/01/20 10:55:34;;;;;;;9.05;2.25;;;;;;;0.13;80.00;100076.70;1601339;89;22163;-73
2022/01/20 10:58:13;;;;;;;7.45;1.67;;;;;;;0.15;79.81;100082.66;1627713;87;21030;-73
2022/01/20 11:00:45;;;;;;;7.42;2.52;;;;;;;0.11;79.54;100079.89;1628181;88;21082;-73
2022/01/20 11:03:11;;;;;;;13.72;3.15;;;;;;;0.05;79.26;100081.66;1627964;87;21042;-73
2022/01/20 11:05:39;;;;;;;10.45;2.00;;;;;;;0.03;79.08;100073.08;1628656;88;21047;-73
2022/01/20 11:08:06;;;;;;;6.50;2.45;;;;;;;-0.03;78.87;100067.80;1628567;88;21971;-73
2022/01/20 11:10:32;;;;;;;7.65;2.35;;;;;;;-0.02;78.66;100062.08;1628596;88;21118;-73
2022/01/20 11:12:59;;;;;;;10.55;3.92;;;;;;;0.03;78.43;100058.67;1628570;88;21042;-72
2022/01/20 11:15:26;;;;;;;7.60;2.17;;;;;;;0.11;78.26;100080.36;1626279;87;21023;-72
2022/01/20 11:17:53;;;;;;;9.30;2.42;;;;;;;0.29;77.97;100074.63;1628329;88;21511;-71
2022/01/20 11:20:22;;;;;;;9.48;2.87;;;;;;;0.54;77.73;100076.27;1628174;87;21552;-71
2022/01/20 11:23:01;;;;;;;10.25;3.05;;;;;;;0.58;77.39;100067.69;1627936;88;21089;-72
2022/01/20 11:25:29;;;;;;;12.98;3.00;;;;;;;0.55;77.14;100053.50;1610268;87;21078;-72
2022/01/20 11:28:08;;;;;;;12.20;2.87;;;;;;;0.47;76.84;100061.94;1628623;88;21535;-72
2022/01/20 11:30:40;;;;;;;21.68;7.35;;;;;;;0.43;76.66;100046.90;1626194;88;21102;-72
2022/01/20 11:33:10;;;;;;;12.50;3.50;;;;;;;0.41;76.34;100055.38;1628767;88;21966;-71
2022/01/20 11:35:42;;;;;;;;;;;;;;;0.40;76.13;100052.84;1631005;88;21015;-72
2022/01/20 11:38:09;;;;;;;13.88;3.50;;;;;;;0.41;75.95;100063.23;1628572;88;20187;-72
2022/01/20 11:40:37;;;;;;;13.35;3.33;;;;;;;0.45;75.75;100056.82;1628683;88;21068;-72
2022/01/20 11:43:10;;;;;;;13.60;4.80;;;;;;;0.47;75.50;100068.02;1627139;87;21075;-72
2022/01/20 11:45:50;;;;;;;13.03;3.87;;;;;;;0.52;75.38;100076.87;1628695;87;21879;-72
2022/01/20 11:48:18;;;;;;;8.25;2.80;;;;;;;0.56;75.28;100063.05;1628322;88;21531;-72
2022/01/20 11:50:45;;;;;;;13.50;2.35;;;;;;;0.56;75.11;100078.79;1628624;87;21086;-72
2022/01/20 11:53:17;;;;;;;9.90;2.40;;;;;;;0.58;75.01;100079.50;1628497;88;21026;-72
2022/01/20 11:55:50;;;;;;;15.78;4.80;;;;;;;0.58;74.83;100066.38;1628340;86;21035;-72
2022/01/20 11:58:20;;;;;;;10.75;3.22;;;;;;;0.60;74.63;100059.25;1628496;87;21348;-72
2022/01/20 12:01:08;;;;;;;14.50;4.03;;;;;;;0.64;74.54;100068.53;1628517;88;21078;-71
2022/01/20 12:03:36;;;;;;;10.78;3.70;;;;;;;0.65;74.39;100072.84;1628626;88;21113;-71
2022/01/20 12:06:13;;;;;;;11.28;4.50;;;;;;;0.67;74.16;100057.33;1628553;88;21050;-71
2022/01/20 12:08:37;;;;;;;13.45;3.75;;;;;;;0.72;74.00;100067.49;1587790;90;21133;-71
2022/01/20 12:11:12;;;;;;;16.02;4.90;;;;;;;0.74;73.80;100072.97;1628666;88;21576;-71
2022/01/20 12:13:49;;;;;;;14.65;4.55;;;;;;;0.75;73.62;100076.44;1628335;88;21087;-71
2022/01/20 12:16:20;;;;;;;12.85;4.37;;;;;;;0.76;73.47;100068.94;1628830;88;21614;-71
2022/01/20 12:18:50;;;;;;;13.98;4.58;;;;;;;0.77;73.29;100073.24;1628610;88;21099;-71
2022/01/20 12:21:16;;;;;;;;;;;;;;;0.77;73.02;100079.80;1630955;88;21126;-71
2022/01/20 12:23:44;;;;;;;12.63;3.37;;;;;;;0.76;72.82;100070.25;1628653;88;21146;-71
2022/01/20 12:26:10;;;;;;;7.37;2.08;;;;;;;0.76;72.68;100091.24;1627801;88;21129;-71
2022/01/20 12:28:36;;;;;;;5.95;2.35;;;;;;;0.70;72.33;100076.81;1628641;88;21022;-71
2022/01/20 12:31:03;;;;;;;14.25;2.33;;;;;;;0.68;72.21;100089.66;1628742;88;21027;-71
2022/01/20 12:33:32;;;;;;;10.98;3.55;;;;;;;0.70;72.01;100087.77;1628681;88;21075;-71
2022/01/20 12:36:03;;;;;;;10.63;2.52;;;;;;;0.73;71.97;100086.23;1628541;88;21427;-71
2022/01/20 12:38:29;;;;;;;10.55;2.37;;;;;;;0.80;71.88;100091.37;1588061;90;21101;-71
2022/01/20 12:41:15;;;;;;;9.13;2.95;;;;;;;0.81;71.71;100090.44;1628837;88;21058;-71
2022/01/20 12:44:05;;;;;;;7.47;2.70;;;;;;;0.81;71.60;100091.75;1628586;88;21087;-71